• Join FlightAware (Why Join?)
  • Login
  • US Flag 
02:55AM EDT


 

Airport Tracker/Info


-or-


 

Live Flight TrackerFlight Track Log ✈ UAL432 ✈ 15-Jul-2013 ✈ KIAH - KORD

Flight Track Log - Related Links

Times and Time Zones

All times are in EDT time to prevent confusion due to time zone crossing. See the UAL432 flight status page for this flight to view local times or setup timezone preferences in your user account.

Time Position Orientation Groundspeed Altitude Reporting Facility
EDT Latitude Longitude Course Direction KTS MPH feet Rate Location/Type
11:37AM 29.9783 -95.2958 30° Northeast 182 209 800  Level Houston Center
11:38AM 30.0239 -95.2697 26° Northeast 231 266 2,600 1,620 Climbing Houston Center
11:39AM 30.3038 -95.2013 14° North  Level FlightAware Approximate
11:39AM 30.0939 -95.2528 12° North 254 292 4,000  Level Houston Center
11:40AM 30.4115 -95.1609 23° Northeast  Level FlightAware Approximate
11:40AM 30.1706 -95.2267 16° North 284 327 5,500  Level Houston Center
11:41AM 30.5132 -95.1021 27° Northeast  Level FlightAware Approximate
11:41AM 30.2464 -95.1992 17° North 285 328 8,500  Level Houston Center
11:42AM 30.6131 -95.0413 30° Northeast  Level FlightAware Approximate
11:42AM 30.3464 -95.1650 16° North 306 352 11,000  Level Houston Center
11:43AM 30.4381 -95.1308 18° North 360 414 12,100 1,560 Climbing Houston Center
11:44AM 30.5492 -95.0908 17° North 407 468 14,300 2,280 Climbing Houston Center
11:45AM 30.6753 -95.0211 25° Northeast 419 482 16,900 2,160 Climbing Houston Center
11:46AM 30.7814 -94.9544 28° Northeast 429 494 18,800 1,740 Climbing Houston Center
11:47AM 30.8889 -94.8869 28° Northeast 437 503 20,500 1,500 Climbing Houston Center
11:48AM 30.9997 -94.8169 28° Northeast 448 516 22,000 1,380 Climbing Houston Center
11:49AM 31.1131 -94.7456 28° Northeast 460 529 23,400 1,440 Climbing Houston Center
11:50AM 31.2464 -94.6550 30° Northeast 492 566 25,000 1,200 Climbing Houston Center
11:51AM 31.3597 -94.5794 30° Northeast 482 555 26,000 900 Climbing Houston Center
11:52AM 31.4756 -94.4994 30° Northeast 484 557 26,900 900 Climbing Houston Center
11:53AM 31.5939 -94.4189 30° Northeast 489 563 27,900 1,260 Climbing Houston Center
11:54AM 31.7336 -94.3206 31° Northeast 488 562 29,600 1,500 Climbing Houston Center
11:55AM 31.8481 -94.2411 31° Northeast 482 555 31,000 1,200 Climbing Houston Center
11:56AM 31.9550 -94.1656 31° Northeast 478 550 32,100 1,020 Climbing Houston Center
11:57AM 32.0750 -94.0803 31° Northeast 474 545 33,200 1,080 Climbing Houston Center
11:58AM 32.1883 -94.0011 31° Northeast 474 545 34,400 840 Climbing Houston Center
11:59AM 32.3011 -93.9208 31° Northeast 473 544 35,000 240 Climbing Houston Center
12:01PM 32.4439 -93.8144 32° Northeast 469 540 35,000  Level Fort Worth Center
12:02PM 32.5564 -93.7386 30° Northeast 469 540 35,000  Level Fort Worth Center
12:03PM 32.6586 -93.6628 32° Northeast 469 540 35,000  Level Fort Worth Center
12:04PM 32.7731 -93.5814 31° Northeast 469 540 35,000  Level Fort Worth Center
12:05PM 32.8872 -93.5000 31° Northeast 469 540 35,000 -480 Level Fort Worth Center
12:06PM 32.9953 -93.4183 32° Northeast 469 540 34,100 -900 Descending Fort Worth Center
12:07PM 33.1097 -93.3364 31° Northeast 469 540 33,200 -960 Descending Fort Worth Center
12:08PM 33.2197 -93.2569 31° Northeast 469 540 32,200 -1,080 Descending Fort Worth Center
12:09PM 33.3300 -93.1794 30° Northeast 463 533 31,100 -480 Descending Fort Worth Center
12:10PM 33.5114 -93.0481 31° Northeast 475 547 31,000 -60 Descending Memphis Center
12:11PM 33.6258 -92.9667 31° Northeast 475 547 31,000  Level Memphis Center
12:12PM 33.7403 -92.8828 31° Northeast 475 547 31,000  Level Memphis Center
12:13PM 33.8547 -92.7958 32° Northeast 475 547 31,000  Level Memphis Center
12:14PM 33.9731 -92.7142 30° Northeast 475 547 31,000  Level Memphis Center
12:15PM 34.0961 -92.6172 33° Northeast 480 552 31,000  Level Memphis Center
12:16PM 34.2167 -92.5247 32° Northeast 486 559 31,000  Level Memphis Center
12:17PM 34.3350 -92.4372 31° Northeast 491 565 31,000  Level Memphis Center
12:18PM 34.4511 -92.3494 32° Northeast 491 565 31,000  Level Memphis Center
12:19PM 34.5714 -92.2614 31° Northeast 491 565 31,000  Level Memphis Center
12:20PM 34.6917 -92.1783 30° Northeast 496 571 31,000  Level Memphis Center
12:21PM 34.8278 -92.1356 14° North 490 564 31,000  Level Memphis Center
12:22PM 34.9639 -92.0953 14° North 490 564 31,000  Level Memphis Center
12:23PM 35.1003 -92.0575 13° North 495 570 31,000  Level Memphis Center
12:24PM 35.2361 -92.0197 13° North 495 570 31,000  Level Memphis Center
12:25PM 35.3744 -91.9792 13° North 495 570 31,000  Level Memphis Center
12:26PM 35.5125 -91.9383 14° North 500 575 31,000  Level Memphis Center
12:27PM 35.6467 -91.9000 13° North 500 575 31,000  Level Memphis Center
12:28PM 35.7825 -91.8617 13° North 500 575 31,000  Level Memphis Center
12:29PM 35.9081 -91.8231 14° North 500 575 31,000  Level Memphis Center
12:30PM 36.0419 -91.7869 12° North 500 575 31,000  Level Memphis Center
12:31PM 36.1781 -91.7456 14° North 495 570 31,000  Level Memphis Center
12:32PM 36.3139 -91.7067 13° North 495 570 31,000  Level Memphis Center
12:33PM 36.4542 -91.6650 13° North 495 570 31,000  Level Memphis Center
12:35PM 36.6611 -91.5958 15° North 511 588 31,000  Level Kansas City Center
12:36PM 36.7997 -91.5558 13° North 511 588 31,000  Level Kansas City Center
12:37PM 36.9364 -91.5156 13° North 506 582 31,000  Level Kansas City Center
12:38PM 37.1006 -91.4653 14° North 506 582 31,000  Level Kansas City Center
12:39PM 37.2375 -91.4239 14° North 506 582 31,000  Level Kansas City Center
12:40PM 37.3744 -91.3814 14° North 507 583 31,000  Level Kansas City Center
12:41PM 37.5117 -91.3408 13° North 507 583 31,000  Level Kansas City Center
12:42PM 37.6472 -91.2992 14° North 504 580 31,000  Level Kansas City Center
12:43PM 37.7839 -91.2561 14° North 506 582 31,000  Level Kansas City Center
12:44PM 37.9467 -91.2039 14° North 505 581 31,000 -120 Level Kansas City Center
12:45PM 38.0814 -91.1617 14° North 501 577 30,800 -600 Descending Kansas City Center
12:46PM 38.2206 -91.1192 13° North 512 589 29,800 -900 Descending Kansas City Center
12:47PM 38.3547 -91.0756 14° North 501 577 29,000 -420 Descending Kansas City Center
12:48PM 38.4906 -91.0347 13° North 502 578 29,000  Level Kansas City Center
12:49PM 38.6253 -90.9922 14° North 498 573 29,000  Level Kansas City Center
12:50PM 38.7844 -90.9228 19° North 505 581 29,000  Level Kansas City Center
12:51PM 38.9133 -90.8522 23° Northeast 504 580 29,000  Level Kansas City Center
12:52PM 39.0431 -90.7822 23° Northeast 505 581 29,000  Level Kansas City Center
12:53PM 39.1836 -90.7086 22° Northeast 508 585 29,000  Level Kansas City Center
12:54PM 39.3128 -90.6347 24° Northeast 505 581 29,000  Level Kansas City Center
12:55PM 39.4408 -90.5631 23° Northeast 502 578 29,000  Level Kansas City Center
12:56PM 39.5689 -90.4936 23° Northeast 500 575 29,000  Level Kansas City Center
12:57PM 39.6975 -90.4236 23° Northeast 500 575 29,000  Level Kansas City Center
12:58PM 39.8375 -90.3464 23° Northeast 498 573 29,000  Level Kansas City Center
12:59PM 39.9644 -90.2736 24° Northeast 497 572 29,000  Level Kansas City Center
01:01PM 40.0917 -90.2006 24° Northeast 499 574 29,000  Level Kansas City Center
01:02PM 40.2189 -90.1292 23° Northeast 498 573 29,000  Level Kansas City Center
01:03PM 40.3711 -90.0425 23° Northeast 497 572 29,000  Level Kansas City Center
01:03PM 40.4206 -90.0139 24° Northeast 496 571 29,000  Level Chicago Center
01:04PM 40.5667 -89.9306 23° Northeast 500 575 29,000  Level Chicago Center
01:05PM 40.6917 -89.8572 24° Northeast 497 572 29,000 -180 Level Chicago Center
01:06PM 40.8158 -89.7819 25° Northeast 493 567 28,700 -840 Descending Chicago Center
01:07PM 40.9475 -89.7094 23° Northeast 509 586 27,300 -2,160 Descending Chicago Center
01:08PM 41.0942 -89.6261 23° Northeast 494 568 24,300 -1,920 Descending Chicago Center
01:09PM 41.1917 -89.5128 41° Northeast 483 556 23,400 -1,620 Descending Chicago Center
01:10PM 41.2511 -89.3608 62° Northeast 468 539 21,000 -2,400 Descending Chicago Center
01:11PM 41.3106 -89.2147 62° Northeast 455 524 18,500 -2,160 Descending Chicago Center
01:12PM 41.3633 -89.0772 63° Northeast 428 493 16,500 -2,280 Descending Chicago Center
01:13PM 41.4308 -88.9169 61° Northeast 418 481 13,800 -2,340 Descending Chicago Center
01:15PM 41.4811 -88.7864 63° Northeast 397 457 11,700 -1,380 Descending Chicago Center
01:16PM 41.5281 -88.6658 62° Northeast 368 423 11,000 -360 Descending Chicago Center
01:17PM 41.5675 -88.5669 62° Northeast 301 346 11,000  Level Chicago Center
01:18PM 41.6075 -88.4706 61° Northeast 297 342 11,000 -60 Level Chicago Center
01:19PM 41.6586 -88.3806 53° Northeast 301 346 10,900 -840 Descending Chicago Center
01:20PM 41.7214 -88.2756 51° Northeast 299 344 9,300 -1,200 Descending Chicago Center
01:21PM 41.7986 -88.2769 359° North 287 330 8,500 -600 Descending Chicago Center
01:22PM 41.8683 -88.2942 350° North 260 299 8,100 -600 Descending Chicago Center
01:23PM 41.9264 -88.3094 349° North 216 249 7,300 -960 Descending Chicago Center
01:24PM 41.9633 -88.2747 35° Northeast 184 212 6,200 -1,320 Descending Chicago Center
01:25PM 41.9672 -88.1958 86° East 175 201 4,600 -1,560 Descending Chicago Center